Time;durP1;ratioP1;P1;durP2;ratioP2;P2;SDS_P1;SDS_P2;PMS_P1;PMS_P2;Temp;Humidity;BMP_temperature;BMP_pressure;BME280_temperature;BME280_humidity;BME280_pressure;Samples;Min_cycle;Max_cycle;Signal;HPM_P1;HPM_P2
2021/03/16 00:00:38;;;;;;;8.53;6.40;;;1.10;99.90;;;;;;2081300;28;20272;-68
2021/03/16 00:01:39;;;;;;;9.00;6.77;;;1.10;99.90;;;;;;2080671;28;20220;-68
2021/03/16 00:02:39;;;;;;;8.95;6.22;;;1.10;99.90;;;;;;2081291;28;20188;-68
2021/03/16 00:03:40;;;;;;;9.07;7.10;;;1.10;99.90;;;;;;2080526;28;20295;-68
2021/03/16 00:04:41;;;;;;;7.57;6.20;;;1.10;99.90;;;;;;2080517;28;20721;-68
2021/03/16 00:05:41;;;;;;;9.13;6.23;;;1.10;99.90;;;;;;2080576;28;20677;-68
2021/03/16 00:06:42;;;;;;;7.60;6.10;;;1.10;99.90;;;;;;2080701;28;20238;-69
2021/03/16 00:07:43;;;;;;;8.50;6.73;;;1.10;99.90;;;;;;2081264;28;20203;-68
2021/03/16 00:08:44;;;;;;;8.73;7.10;;;1.10;99.90;;;;;;2081043;28;20552;-68
2021/03/16 00:09:45;;;;;;;8.10;6.63;;;1.10;99.90;;;;;;2081158;28;20241;-68
2021/03/16 00:10:45;;;;;;;10.43;7.37;;;1.20;99.90;;;;;;2080919;28;20188;-68
2021/03/16 00:11:46;;;;;;;9.70;7.23;;;1.20;99.90;;;;;;2080720;28;20201;-68
2021/03/16 00:12:47;;;;;;;8.93;6.53;;;1.10;99.90;;;;;;2080668;28;20184;-68
2021/03/16 00:13:47;;;;;;;13.10;7.90;;;1.10;99.90;;;;;;2080619;28;20176;-68
2021/03/16 00:14:48;;;;;;;12.50;7.60;;;1.10;99.90;;;;;;2080477;28;20726;-68
2021/03/16 00:15:49;;;;;;;9.80;7.07;;;1.10;99.90;;;;;;2080693;28;20188;-68
2021/03/16 00:16:51;;;;;;;9.57;7.20;;;1.10;99.90;;;;;;2081135;28;20168;-68
2021/03/16 00:17:51;;;;;;;10.65;7.55;;;1.10;99.90;;;;;;2081393;28;20275;-68
2021/03/16 00:18:53;;;;;;;11.77;7.40;;;1.10;99.90;;;;;;2081500;28;20185;-68
2021/03/16 00:19:53;;;;;;;10.80;7.40;;;1.10;99.90;;;;;;2080676;28;20192;-68
2021/03/16 00:20:54;;;;;;;13.40;7.63;;;1.10;99.90;;;;;;2080106;28;20185;-68
2021/03/16 00:21:55;;;;;;;10.20;7.03;;;1.10;99.90;;;;;;2081204;28;20197;-68
2021/03/16 00:22:56;;;;;;;10.50;7.07;;;1.10;99.90;;;;;;2080883;28;20173;-68
2021/03/16 00:23:57;;;;;;;9.47;6.93;;;1.10;99.90;;;;;;2080766;28;20207;-68
2021/03/16 00:24:57;;;;;;;10.77;7.00;;;1.10;99.90;;;;;;2081194;28;20188;-68
2021/03/16 00:25:58;;;;;;;12.07;6.33;;;1.10;99.90;;;;;;2081068;28;20196;-68
2021/03/16 00:26:59;;;;;;;10.50;7.07;;;1.10;99.90;;;;;;2081446;28;20267;-68
2021/03/16 00:27:59;;;;;;;10.03;7.00;;;1.10;99.90;;;;;;2081188;28;20267;-68
2021/03/16 00:29:00;;;;;;;8.13;6.70;;;1.10;99.90;;;;;;2081299;28;20180;-68
2021/03/16 00:30:01;;;;;;;9.87;7.30;;;1.10;99.90;;;;;;2081261;28;20269;-68
2021/03/16 00:31:01;;;;;;;9.83;7.13;;;1.00;99.90;;;;;;2080409;28;20785;-68
2021/03/16 00:32:02;;;;;;;8.53;6.77;;;1.10;99.90;;;;;;2081038;28;20409;-68
2021/03/16 00:33:03;;;;;;;12.63;7.10;;;1.10;99.90;;;;;;2081320;28;20252;-68
2021/03/16 00:34:04;;;;;;;9.83;7.10;;;1.20;99.90;;;;;;2081062;28;20701;-68
2021/03/16 00:35:06;;;;;;;7.83;6.77;;;1.20;99.90;;;;;;2081393;28;20247;-68
2021/03/16 00:36:07;;;;;;;8.10;6.75;;;1.10;99.90;;;;;;2080994;28;20188;-68
2021/03/16 00:37:07;;;;;;;10.33;7.40;;;1.10;99.90;;;;;;2081183;28;20199;-68
2021/03/16 00:38:08;;;;;;;11.80;6.87;;;1.10;99.90;;;;;;2080983;28;20210;-68
2021/03/16 00:39:09;;;;;;;10.07;7.23;;;1.10;99.90;;;;;;2081336;28;20223;-69
2021/03/16 00:40:11;;;;;;;12.10;7.40;;;1.10;99.90;;;;;;2081064;28;20512;-68
2021/03/16 00:41:11;;;;;;;11.55;6.78;;;1.10;99.90;;;;;;2079800;28;20521;-68
2021/03/16 00:42:12;;;;;;;13.90;7.33;;;1.10;99.90;;;;;;2080257;28;20204;-68
2021/03/16 00:43:13;;;;;;;11.67;7.37;;;1.10;99.90;;;;;;2081242;28;20239;-68
2021/03/16 00:44:14;;;;;;;9.97;7.90;;;1.10;99.90;;;;;;2080963;28;20189;-68
2021/03/16 00:45:15;;;;;;;12.40;7.10;;;1.20;99.90;;;;;;2081110;28;20185;-68
2021/03/16 00:46:15;;;;;;;12.63;7.47;;;1.10;99.90;;;;;;2080850;28;20233;-69
2021/03/16 00:47:16;;;;;;;14.23;7.73;;;1.10;99.90;;;;;;2080920;28;20675;-68
2021/03/16 00:48:18;;;;;;;12.57;6.97;;;1.10;99.90;;;;;;2080222;28;20172;-68
2021/03/16 00:49:19;;;;;;;11.77;7.88;;;1.00;99.90;;;;;;2072365;28;20199;-68
2021/03/16 00:50:19;;;;;;;12.67;7.03;;;1.00;99.90;;;;;;2080145;28;20262;-68
2021/03/16 00:51:20;;;;;;;13.13;7.67;;;1.00;99.90;;;;;;2080130;28;20204;-68
2021/03/16 00:52:21;;;;;;;11.97;6.87;;;1.00;99.90;;;;;;2080577;28;20185;-68
2021/03/16 00:53:22;;;;;;;12.43;7.23;;;1.00;99.90;;;;;;2080850;28;20188;-68
2021/03/16 00:54:23;;;;;;;11.03;7.33;;;0.90;99.90;;;;;;2080778;28;20184;-68
2021/03/16 00:55:23;;;;;;;9.27;7.00;;;1.00;99.90;;;;;;2081039;28;20180;-69
2021/03/16 00:56:24;;;;;;;9.77;7.10;;;1.00;99.90;;;;;;2080797;28;20169;-68
2021/03/16 00:57:25;;;;;;;11.07;6.90;;;1.00;99.90;;;;;;2080995;28;20225;-68
2021/03/16 00:58:30;;;;;;;11.77;7.60;;;1.00;99.90;;;;;;2080527;28;20437;-68
2021/03/16 00:59:30;;;;;;;12.45;7.43;;;1.00;99.90;;;;;;2080997;28;20267;-68
2021/03/16 01:00:32;;;;;;;13.70;8.13;;;1.00;99.90;;;;;;2080871;28;20188;-68
2021/03/16 01:01:33;;;;;;;15.65;7.57;;;1.00;99.90;;;;;;2080346;28;20208;-68
2021/03/16 01:02:34;;;;;;;10.43;7.50;;;1.00;99.90;;;;;;2080727;28;20222;-68
2021/03/16 01:03:35;;;;;;;10.67;6.97;;;1.00;99.90;;;;;;2080877;28;20241;-68
2021/03/16 01:04:36;;;;;;;10.93;7.40;;;1.00;99.90;;;;;;2080926;28;20190;-68
2021/03/16 01:05:36;;;;;;;12.17;7.63;;;1.00;99.90;;;;;;2080918;28;20195;-68
2021/03/16 01:06:37;;;;;;;11.00;7.33;;;1.00;99.90;;;;;;2080853;28;20258;-68
2021/03/16 01:07:38;;;;;;;11.07;6.87;;;1.00;99.90;;;;;;2081026;28;20183;-68
2021/03/16 01:08:38;;;;;;;10.83;7.10;;;1.00;99.90;;;;;;2080768;28;20550;-68
2021/03/16 01:09:39;;;;;;;10.13;7.50;;;1.00;99.90;;;;;;2080248;28;20268;-68
2021/03/16 01:10:40;;;;;;;12.47;7.30;;;1.00;99.90;;;;;;2080126;28;20224;-68
2021/03/16 01:11:41;;;;;;;11.67;6.53;;;1.00;99.90;;;;;;2080232;28;20208;-69
2021/03/16 01:12:43;;;;;;;13.63;6.87;;;1.00;99.90;;;;;;2080917;28;20173;-69
2021/03/16 01:13:43;;;;;;;10.73;7.03;;;1.00;99.90;;;;;;2080979;28;20303;-68
2021/03/16 01:14:44;;;;;;;10.70;6.80;;;1.00;99.90;;;;;;2080872;28;20255;-71
2021/03/16 01:15:46;;;;;;;10.17;6.37;;;1.00;99.90;;;;;;2081064;28;20172;-69
2021/03/16 01:16:46;;;;;;;10.35;6.50;;;1.00;99.90;;;;;;2080973;28;20183;-68
2021/03/16 01:17:47;;;;;;;9.07;5.97;;;1.00;99.90;;;;;;2081020;28;20177;-68
2021/03/16 01:18:48;;;;;;;9.57;7.07;;;1.00;99.90;;;;;;2081221;28;20180;-68
2021/03/16 01:19:48;;;;;;;15.20;7.33;;;0.90;99.90;;;;;;2080789;28;20183;-69
2021/03/16 01:20:49;;;;;;;10.53;7.27;;;0.90;99.90;;;;;;2080540;28;20191;-69
2021/03/16 01:21:50;;;;;;;10.63;6.77;;;1.00;99.90;;;;;;2080826;28;20544;-69
2021/03/16 01:22:51;;;;;;;7.90;6.40;;;0.90;99.90;;;;;;2081148;28;20176;-69
2021/03/16 01:23:52;;;;;;;9.43;6.10;;;0.90;99.90;;;;;;2080839;28;20211;-69
2021/03/16 01:24:52;;;;;;;9.67;5.97;;;0.90;99.90;;;;;;2081000;28;20181;-70
2021/03/16 01:25:53;;;;;;;10.57;6.03;;;0.90;99.90;;;;;;2080824;28;20743;-69
2021/03/16 01:26:54;;;;;;;9.37;6.13;;;1.00;99.90;;;;;;2080838;28;20216;-69
2021/03/16 01:27:57;;;;;;;10.23;5.90;;;1.00;99.90;;;;;;2080886;28;20253;-68
2021/03/16 01:28:59;;;;;;;7.30;5.60;;;1.00;99.90;;;;;;2080364;28;20181;-69
2021/03/16 01:30:00;;;;;;;9.73;6.05;;;1.00;99.90;;;;;;2080227;28;20180;-69
2021/03/16 01:31:02;;;;;;;7.43;5.87;;;1.00;99.90;;;;;;2080305;28;20232;-71
2021/03/16 01:32:03;;;;;;;9.55;6.25;;;1.00;99.90;;;;;;2080683;28;20197;-68
2021/03/16 01:33:04;;;;;;;10.02;6.28;;;1.00;99.90;;;;;;2080878;28;20188;-68
2021/03/16 01:34:05;;;;;;;9.02;6.13;;;0.90;99.90;;;;;;2079992;28;20191;-69
2021/03/16 01:35:09;;;;;;;12.37;7.07;;;1.00;99.90;;;;;;2080187;28;20181;-68
2021/03/16 01:36:10;;;;;;;8.98;6.18;;;0.90;99.90;;;;;;2080502;28;20234;-68
2021/03/16 01:37:10;;;;;;;10.63;6.27;;;0.90;99.90;;;;;;2080307;28;20792;-68
2021/03/16 01:38:11;;;;;;;12.43;6.60;;;1.00;99.90;;;;;;2080166;28;20183;-68
2021/03/16 01:39:12;;;;;;;11.27;6.27;;;1.00;99.90;;;;;;2080859;28;20606;-71
2021/03/16 01:40:16;;;;;;;13.43;7.40;;;1.00;99.90;;;;;;2080725;28;20254;-68
2021/03/16 01:41:17;;;;;;;10.50;6.88;;;1.10;99.90;;;;;;2080083;28;20181;-69
2021/03/16 01:42:17;;;;;;;12.60;6.80;;;1.10;99.90;;;;;;2080152;28;20181;-68
2021/03/16 01:43:32;;;;;;;11.90;7.00;;;1.00;99.90;;;;;;2080857;28;20211;-69
2021/03/16 01:44:33;;;;;;;9.55;6.40;;;1.00;99.90;;;;;;2080681;28;20187;-68
2021/03/16 01:45:34;;;;;;;12.90;6.87;;;1.00;99.90;;;;;;2080871;28;20782;-68
2021/03/16 01:46:34;;;;;;;9.98;6.40;;;1.00;99.90;;;;;;2080634;28;20246;-70
2021/03/16 01:47:35;;;;;;;12.30;6.47;;;1.00;99.90;;;;;;2080755;28;20266;-68
2021/03/16 01:48:37;;;;;;;10.43;6.83;;;1.00;99.90;;;;;;2080184;28;20196;-68
2021/03/16 01:49:39;;;;;;;11.13;6.40;;;1.00;99.90;;;;;;2072252;28;20188;-68
2021/03/16 01:50:41;;;;;;;11.82;7.75;;;1.00;99.90;;;;;;2079964;28;20185;-68
2021/03/16 01:51:42;;;;;;;11.57;7.57;;;1.00;99.90;;;;;;2079894;28;20215;-68
2021/03/16 01:52:43;;;;;;;11.63;6.60;;;1.00;99.90;;;;;;2080061;28;20567;-68
2021/03/16 01:53:44;;;;;;;10.95;7.30;;;1.00;99.90;;;;;;2072220;28;20185;-68
2021/03/16 01:54:45;;;;;;;10.13;6.63;;;1.00;99.90;;;;;;2072039;28;20180;-68
2021/03/16 01:55:47;;;;;;;11.65;6.63;;;1.00;99.90;;;;;;2072153;28;20177;-68
2021/03/16 01:56:48;;;;;;;11.55;7.15;;;1.00;99.90;;;;;;2071969;28;20224;-67
2021/03/16 01:57:53;;;;;;;10.10;6.88;;;1.00;99.90;;;;;;2071989;28;20177;-67
2021/03/16 01:58:56;;;;;;;11.80;6.60;;;1.00;99.90;;;;;;2072406;28;20183;-68
2021/03/16 01:59:57;;;;;;;10.13;6.47;;;0.90;99.90;;;;;;2080259;28;20263;-68
2021/03/16 02:00:58;;;;;;;10.15;6.47;;;0.90;99.90;;;;;;2079974;28;20200;-68
2021/03/16 02:01:58;;;;;;;8.83;6.57;;;0.90;99.90;;;;;;2080782;28;20206;-69
2021/03/16 02:02:59;;;;;;;10.20;6.47;;;0.90;99.90;;;;;;2080256;28;20183;-67
2021/03/16 02:04:00;;;;;;;9.60;6.70;;;0.90;99.90;;;;;;2080172;28;20185;-68
2021/03/16 02:05:06;;;;;;;12.63;6.80;;;0.80;99.90;;;;;;2080163;28;20180;-68
2021/03/16 02:06:15;;;;;;;10.80;6.68;;;0.90;99.90;;;;;;2082328;28;20164;-68
2021/03/16 02:07:26;;;;;;;10.63;6.32;;;0.90;99.90;;;;;;2081565;28;20173;-67
2021/03/16 02:08:47;;;;;;;10.90;5.47;;;0.90;99.90;;;;;;2074839;28;20173;-67
2021/03/16 02:10:17;;;;;;;11.45;6.32;;;0.80;99.90;;;;;;2076061;28;20231;-67
2021/03/16 02:11:34;;;;;;;10.38;5.35;;;0.80;99.90;;;;;;2071762;28;20778;-68
2021/03/16 02:12:44;;;;;;;16.00;6.28;;;0.80;99.90;;;;;;2075515;28;20193;-68
2021/03/16 02:13:54;;;;;;;10.23;5.82;;;0.80;99.90;;;;;;2066414;28;20186;-68
2021/03/16 02:15:05;;;;;;;10.18;6.40;;;0.80;99.90;;;;;;2067398;28;20193;-67
2021/03/16 02:16:19;;;;;;;10.65;5.97;;;0.80;99.90;;;;;;2081628;28;20207;-68
2021/03/16 02:17:28;;;;;;;8.65;6.57;;;0.80;99.90;;;;;;2082187;28;20259;-67
2021/03/16 02:18:36;;;;;;;8.60;5.88;;;0.80;99.90;;;;;;2081503;28;20291;-68
2021/03/16 02:19:55;;;;;;;10.50;6.00;;;0.80;99.90;;;;;;2072988;28;20195;-67
2021/03/16 02:21:08;;;;;;;13.48;6.55;;;0.80;99.90;;;;;;2075149;28;20608;-68
2021/03/16 02:22:09;;;;;;;13.13;6.55;;;0.80;99.90;;;;;;2081343;28;20215;-68
2021/03/16 02:23:16;;;;;;;14.00;6.40;;;0.80;99.90;;;;;;2073287;28;20183;-67
2021/03/16 02:24:30;;;;;;;9.98;6.20;;;0.80;99.90;;;;;;2081461;28;20180;-68
2021/03/16 02:26:06;;;;;;;9.55;5.82;;;0.80;99.90;;;;;;2081494;28;20189;-68
2021/03/16 02:27:16;;;;;;;9.15;5.25;;;0.80;99.90;;;;;;2081334;28;20640;-68
2021/03/16 02:28:56;;;;;;;9.10;6.00;;;0.80;99.90;;;;;;2082653;28;20571;-68
2021/03/16 02:30:04;;;;;;;8.35;5.38;;;0.80;99.90;;;;;;2084842;28;20172;-68
2021/03/16 02:31:07;;;;;;;8.77;5.82;;;0.80;99.90;;;;;;2080441;28;20208;-68
2021/03/16 02:32:12;;;;;;;9.50;6.20;;;0.90;99.90;;;;;;2081252;28;20621;-68
2021/03/16 02:33:19;;;;;;;9.93;6.25;;;0.90;99.90;;;;;;2081596;28;20655;-68
2021/03/16 02:34:21;;;;;;;6.78;5.13;;;0.90;99.90;;;;;;2074010;28;20169;-71
2021/03/16 02:35:23;;;;;;;8.63;6.32;;;0.90;99.90;;;;;;2073569;28;20207;-68
2021/03/16 02:36:24;;;;;;;8.45;5.35;;;0.90;99.90;;;;;;2073080;28;20178;-69
2021/03/16 02:37:28;;;;;;;9.93;5.45;;;0.90;99.90;;;;;;2065264;28;20190;-69
2021/03/16 02:38:37;;;;;;;7.47;5.22;;;0.90;99.90;;;;;;2073467;28;20537;-69
2021/03/16 02:39:38;;;;;;;10.00;5.50;;;0.80;99.90;;;;;;2081452;28;20169;-68
2021/03/16 02:40:40;;;;;;;8.93;5.32;;;0.80;99.90;;;;;;2072983;28;20833;-68
2021/03/16 02:41:46;;;;;;;11.52;6.05;;;0.80;99.90;;;;;;2072456;28;20237;-68
2021/03/16 02:42:46;;;;;;;9.23;5.25;;;0.80;99.90;;;;;;2073591;28;20709;-68
2021/03/16 02:43:47;;;;;;;9.40;5.40;;;0.80;99.90;;;;;;2081303;28;20187;-68
2021/03/16 02:44:51;;;;;;;7.70;5.22;;;0.80;99.90;;;;;;2081835;28;20207;-68
2021/03/16 02:45:53;;;;;;;7.53;4.72;;;0.80;99.90;;;;;;2082160;28;20187;-68
2021/03/16 02:46:54;;;;;;;8.98;5.70;;;0.80;99.90;;;;;;2080984;28;20180;-68
2021/03/16 02:47:57;;;;;;;8.32;6.03;;;0.80;99.90;;;;;;2073387;28;20280;-68
2021/03/16 02:48:58;;;;;;;7.60;5.43;;;0.80;99.90;;;;;;2073108;28;20686;-68
2021/03/16 02:49:59;;;;;;;10.82;5.90;;;0.80;99.90;;;;;;2073359;28;20288;-68
2021/03/16 02:51:01;;;;;;;10.67;6.00;;;0.90;99.90;;;;;;2080574;28;20217;-68
2021/03/16 02:52:03;;;;;;;8.98;5.00;;;0.80;99.90;;;;;;2081344;28;20456;-68
2021/03/16 02:53:05;;;;;;;9.38;5.10;;;0.80;99.90;;;;;;2081130;28;20188;-69
2021/03/16 02:54:08;;;;;;;7.65;5.28;;;0.80;99.90;;;;;;2081379;28;20179;-68
2021/03/16 02:55:10;;;;;;;9.50;5.40;;;0.80;99.90;;;;;;2081781;28;20177;-68
2021/03/16 02:56:12;;;;;;;9.45;5.78;;;0.70;99.90;;;;;;2081335;28;20176;-68
2021/03/16 02:57:15;;;;;;;10.20;5.43;;;0.70;99.90;;;;;;2081116;28;20189;-70
2021/03/16 02:58:17;;;;;;;8.70;4.80;;;0.70;99.90;;;;;;2081121;28;20188;-68
2021/03/16 02:59:20;;;;;;;12.00;6.13;;;0.70;99.90;;;;;;2081128;28;20351;-68
2021/03/16 03:00:23;;;;;;;9.13;5.20;;;0.70;99.90;;;;;;2073233;28;20177;-68
2021/03/16 03:01:25;;;;;;;10.77;6.00;;;0.70;99.90;;;;;;2072243;28;20204;-68
2021/03/16 03:02:28;;;;;;;7.82;5.10;;;0.70;99.90;;;;;;2073097;28;20193;-68
2021/03/16 03:03:30;;;;;;;13.90;6.03;;;0.70;99.90;;;;;;2072974;28;20283;-68
2021/03/16 03:04:32;;;;;;;9.65;5.35;;;0.70;99.90;;;;;;2073005;28;20189;-68
2021/03/16 03:05:36;;;;;;;8.75;5.72;;;0.70;99.90;;;;;;2081080;28;20185;-68
2021/03/16 03:06:42;;;;;;;10.18;5.47;;;0.80;99.90;;;;;;2081596;28;20203;-68
2021/03/16 03:07:43;;;;;;;8.00;5.10;;;0.70;99.90;;;;;;2081095;28;20191;-68
2021/03/16 03:08:46;;;;;;;10.10;6.15;;;0.80;99.90;;;;;;2072685;28;20323;-68
2021/03/16 03:09:47;;;;;;;8.73;5.40;;;0.70;99.90;;;;;;2081017;28;20188;-68
2021/03/16 03:10:48;;;;;;;6.00;5.23;;;0.70;99.90;;;;;;2081199;28;20188;-67
2021/03/16 03:11:48;;;;;;;8.80;5.90;;;0.70;99.90;;;;;;2081190;28;20663;-68
2021/03/16 03:12:52;;;;;;;11.03;6.30;;;0.70;99.90;;;;;;2081555;28;20176;-68
2021/03/16 03:13:52;;;;;;;10.60;5.50;;;0.70;99.90;;;;;;2081552;28;20249;-67
2021/03/16 03:14:53;;;;;;;9.60;6.30;;;0.70;99.90;;;;;;2081508;28;20715;-68
2021/03/16 03:15:54;;;;;;;11.00;5.73;;;0.70;99.90;;;;;;2081566;28;20176;-68
2021/03/16 03:16:57;;;;;;;9.90;5.60;;;0.70;99.90;;;;;;2080478;28;20168;-68
2021/03/16 03:17:59;;;;;;;8.93;5.53;;;0.70;99.90;;;;;;2080792;28;20184;-68
2021/03/16 03:19:00;;;;;;;9.68;5.20;;;0.70;99.90;;;;;;2080902;28;20185;-68
2021/03/16 03:20:01;;;;;;;7.03;5.10;;;0.70;99.90;;;;;;2081420;28;20546;-68
2021/03/16 03:21:12;;;;;;;8.50;4.38;;;0.70;99.90;;;;;;2080982;28;20203;-68
2021/03/16 03:22:35;;;;;;;9.98;5.10;;;0.70;99.90;;;;;;2080921;28;20168;-68
2021/03/16 03:23:44;;;;;;;9.98;5.25;;;0.70;99.90;;;;;;2081289;28;20609;-68
2021/03/16 03:24:53;;;;;;;7.35;5.00;;;0.60;99.90;;;;;;2080844;28;20743;-68
2021/03/16 03:26:05;;;;;;;9.65;5.45;;;0.60;99.90;;;;;;2074012;28;20192;-68
2021/03/16 03:27:08;;;;;;;9.18;4.70;;;0.60;99.90;;;;;;2080890;28;20214;-68
2021/03/16 03:28:22;;;;;;;7.15;5.13;;;0.60;99.90;;;;;;2081017;28;20203;-68
2021/03/16 03:29:26;;;;;;;6.88;4.97;;;0.70;99.90;;;;;;2074588;28;20184;-68
2021/03/16 03:30:27;;;;;;;8.90;5.10;;;0.60;99.90;;;;;;2072829;28;20326;-68
2021/03/16 03:31:31;;;;;;;9.73;5.15;;;0.60;99.90;;;;;;2071899;28;20556;-68
2021/03/16 03:32:33;;;;;;;6.47;4.55;;;0.60;99.90;;;;;;2080816;28;20188;-68
2021/03/16 03:33:39;;;;;;;9.13;4.65;;;0.60;99.90;;;;;;2072934;28;20181;-68
2021/03/16 03:34:41;;;;;;;8.50;4.90;;;0.50;99.90;;;;;;2073115;28;20169;-68
2021/03/16 03:35:43;;;;;;;7.40;5.03;;;0.60;99.90;;;;;;2072585;28;20275;-68
2021/03/16 03:36:51;;;;;;;7.05;4.40;;;0.60;99.90;;;;;;2072615;28;20181;-68
2021/03/16 03:37:52;;;;;;;8.05;4.22;;;0.60;99.90;;;;;;2081253;28;20267;-68
2021/03/16 03:38:54;;;;;;;8.40;4.82;;;0.60;99.90;;;;;;2088811;28;20187;-68
2021/03/16 03:39:55;;;;;;;6.88;4.00;;;0.60;99.90;;;;;;2080848;28;20188;-68
2021/03/16 03:40:57;;;;;;;6.90;4.25;;;0.50;99.90;;;;;;2080021;28;20191;-68
2021/03/16 03:41:58;;;;;;;6.22;4.00;;;0.50;99.90;;;;;;2080451;28;20306;-70
2021/03/16 03:43:06;;;;;;;9.40;4.13;;;0.50;99.90;;;;;;2080588;28;20187;-67
2021/03/16 03:44:10;;;;;;;7.97;4.40;;;0.60;99.90;;;;;;2080933;28;20168;-67
2021/03/16 03:45:12;;;;;;;7.07;4.65;;;0.60;99.90;;;;;;2080522;28;20180;-67
2021/03/16 03:46:15;;;;;;;6.65;4.80;;;0.60;99.90;;;;;;2072805;28;20247;-68
2021/03/16 03:47:17;;;;;;;7.18;4.30;;;0.60;99.90;;;;;;2080473;28;20647;-68
2021/03/16 03:48:20;;;;;;;7.22;4.07;;;0.60;99.90;;;;;;2072735;28;20184;-68
2021/03/16 03:49:23;;;;;;;10.57;4.50;;;0.60;99.90;;;;;;2080611;28;20672;-68
2021/03/16 03:50:25;;;;;;;6.38;4.05;;;0.60;99.90;;;;;;2080728;28;20264;-68
2021/03/16 03:51:26;;;;;;;6.43;4.53;;;0.60;99.90;;;;;;2071814;28;20547;-67
2021/03/16 03:52:28;;;;;;;9.50;4.57;;;0.60;99.90;;;;;;2071034;28;20215;-67
2021/03/16 03:53:30;;;;;;;9.95;4.22;;;0.60;99.90;;;;;;2071680;28;20532;-68
2021/03/16 03:54:31;;;;;;;6.47;3.65;;;0.60;99.90;;;;;;2080452;28;20215;-67
2021/03/16 03:55:33;;;;;;;9.57;3.90;;;0.50;99.90;;;;;;2080592;28;20233;-67
2021/03/16 03:56:35;;;;;;;7.68;4.00;;;0.50;99.90;;;;;;2072605;28;20188;-67
2021/03/16 03:57:41;;;;;;;6.82;3.85;;;0.50;99.90;;;;;;2072457;28;20261;-67
2021/03/16 03:58:43;;;;;;;6.07;3.70;;;0.40;99.90;;;;;;2080556;28;20756;-68
2021/03/16 03:59:47;;;;;;;7.28;3.75;;;0.50;99.90;;;;;;2080585;28;20188;-67
2021/03/16 04:00:48;;;;;;;7.35;3.67;;;0.50;99.90;;;;;;2072517;28;20190;-67
2021/03/16 04:01:50;;;;;;;5.82;3.60;;;0.40;99.90;;;;;;2072194;28;20271;-67
2021/03/16 04:02:52;;;;;;;5.60;4.00;;;0.40;99.90;;;;;;2072523;28;20204;-67
2021/03/16 04:03:55;;;;;;;8.15;4.35;;;0.50;99.90;;;;;;2072507;28;20589;-67
2021/03/16 04:04:56;;;;;;;5.40;3.53;;;0.50;99.90;;;;;;2080465;28;20189;-67
2021/03/16 04:05:59;;;;;;;7.20;3.67;;;0.50;99.90;;;;;;2081264;28;20241;-68
2021/03/16 04:07:00;;;;;;;5.75;3.60;;;0.50;99.90;;;;;;2080542;28;20180;-68
2021/03/16 04:08:04;;;;;;;8.52;3.97;;;0.40;99.90;;;;;;2080655;28;20183;-68
2021/03/16 04:09:05;;;;;;;7.43;3.60;;;0.50;99.90;;;;;;2080999;28;20187;-67
2021/03/16 04:10:09;;;;;;;7.70;3.87;;;0.50;99.90;;;;;;2081255;28;20184;-67
2021/03/16 04:11:10;;;;;;;7.93;4.07;;;0.50;99.90;;;;;;2079640;28;20254;-68
2021/03/16 04:12:11;;;;;;;6.32;3.63;;;0.50;99.90;;;;;;2080532;28;20622;-67
2021/03/16 04:13:12;;;;;;;6.53;3.60;;;0.40;99.90;;;;;;2080973;28;20200;-68
2021/03/16 04:14:14;;;;;;;9.23;3.63;;;0.50;99.90;;;;;;2080437;28;20190;-67
2021/03/16 04:15:16;;;;;;;7.65;4.05;;;0.40;99.90;;;;;;2072374;28;20204;-67
2021/03/16 04:16:18;;;;;;;12.05;3.70;;;0.50;99.90;;;;;;2072364;28;20181;-67
2021/03/16 04:17:18;;;;;;;5.88;3.50;;;0.50;99.90;;;;;;2072369;28;20190;-67
2021/03/16 04:18:19;;;;;;;7.87;3.83;;;0.50;99.90;;;;;;2072151;28;20190;-67
2021/03/16 04:19:21;;;;;;;5.85;3.33;;;0.50;99.90;;;;;;2072089;28;20569;-68
2021/03/16 04:20:22;;;;;;;6.22;3.80;;;0.50;99.90;;;;;;2072223;28;20196;-68
2021/03/16 04:21:23;;;;;;;5.05;3.33;;;0.50;99.90;;;;;;2079714;28;20181;-68
2021/03/16 04:22:24;;;;;;;6.10;3.70;;;0.50;99.90;;;;;;2081011;28;20180;-68
2021/03/16 04:23:25;;;;;;;9.85;4.07;;;0.50;99.90;;;;;;2080416;28;20203;-67
2021/03/16 04:24:26;;;;;;;5.53;3.77;;;0.50;99.90;;;;;;2080428;28;20799;-67
2021/03/16 04:25:27;;;;;;;6.10;3.70;;;0.50;99.90;;;;;;2080213;28;20270;-68
2021/03/16 04:26:28;;;;;;;9.73;4.23;;;0.50;99.90;;;;;;2080387;28;20223;-67
2021/03/16 04:27:28;;;;;;;7.53;4.27;;;0.50;99.90;;;;;;2081090;28;20184;-67
2021/03/16 04:28:29;;;;;;;9.17;4.07;;;0.50;99.90;;;;;;2080628;28;20647;-67
2021/03/16 04:29:30;;;;;;;8.50;3.50;;;0.50;99.90;;;;;;2080945;28;20189;-67
2021/03/16 04:30:30;;;;;;;10.60;4.33;;;0.50;99.90;;;;;;2080804;28;20191;-67
2021/03/16 04:31:31;;;;;;;8.77;4.40;;;0.50;99.90;;;;;;2080054;28;20693;-67
2021/03/16 04:32:32;;;;;;;5.87;3.57;;;0.50;99.90;;;;;;2080942;28;20183;-67
2021/03/16 04:33:32;;;;;;;9.40;4.37;;;0.50;99.90;;;;;;2080890;28;20186;-67
2021/03/16 04:34:33;;;;;;;11.27;4.63;;;0.50;99.90;;;;;;2080873;28;20679;-67
2021/03/16 04:35:34;;;;;;;9.17;4.30;;;0.60;99.90;;;;;;2080770;28;20219;-67
2021/03/16 04:36:34;;;;;;;7.33;4.23;;;0.50;99.90;;;;;;2080871;28;20229;-68
2021/03/16 04:37:37;;;;;;;8.07;3.77;;;0.50;99.90;;;;;;2080867;28;20218;-67
2021/03/16 04:38:38;;;;;;;10.00;4.13;;;0.50;99.90;;;;;;2080842;28;20264;-67
2021/03/16 04:39:39;;;;;;;10.30;3.87;;;0.60;99.90;;;;;;2080826;28;20182;-67
2021/03/16 04:40:40;;;;;;;6.63;4.00;;;0.50;99.90;;;;;;2080830;28;20185;-67
2021/03/16 04:41:41;;;;;;;9.60;3.50;;;0.50;99.90;;;;;;2079418;28;20458;-67
2021/03/16 04:42:41;;;;;;;10.73;4.10;;;0.50;99.90;;;;;;2080171;28;20732;-67
2021/03/16 04:43:45;;;;;;;6.83;4.50;;;0.50;99.90;;;;;;2080814;28;20269;-67
2021/03/16 04:44:47;;;;;;;10.45;6.32;;;0.50;99.90;;;;;;2080754;28;20184;-67
2021/03/16 04:45:47;;;;;;;9.32;5.45;;;0.50;99.90;;;;;;2080785;28;20605;-68
2021/03/16 04:46:48;;;;;;;10.93;4.93;;;0.50;99.90;;;;;;2080720;28;20188;-67
2021/03/16 04:47:49;;;;;;;9.32;5.30;;;0.50;99.90;;;;;;2080875;28;20383;-67
2021/03/16 04:48:50;;;;;;;9.87;4.87;;;0.50;99.90;;;;;;2080821;28;20333;-67
2021/03/16 04:49:51;;;;;;;10.27;5.07;;;0.50;99.90;;;;;;2080898;28;20183;-67
2021/03/16 04:50:52;;;;;;;9.37;4.10;;;0.50;99.90;;;;;;2080131;28;20765;-67
2021/03/16 04:51:52;;;;;;;9.23;4.00;;;0.60;99.90;;;;;;2080664;28;20233;-67
2021/03/16 04:52:53;;;;;;;9.33;4.00;;;0.60;99.90;;;;;;2080874;28;20203;-67
2021/03/16 04:53:54;;;;;;;6.50;4.00;;;0.60;99.90;;;;;;2081021;28;20204;-67
2021/03/16 04:54:55;;;;;;;7.68;3.50;;;0.60;99.90;;;;;;2080898;28;20255;-67
2021/03/16 04:55:56;;;;;;;5.90;3.87;;;0.60;99.90;;;;;;2080870;28;20188;-67
2021/03/16 04:56:56;;;;;;;6.23;3.53;;;0.60;99.90;;;;;;2080768;28;20189;-67
2021/03/16 04:57:58;;;;;;;5.93;3.70;;;0.60;99.90;;;;;;2080792;28;20188;-67
2021/03/16 04:58:59;;;;;;;6.78;3.40;;;0.50;99.90;;;;;;2080903;28;20863;-67
2021/03/16 05:00:00;;;;;;;8.27;3.53;;;0.60;99.90;;;;;;2080772;28;20199;-67
2021/03/16 05:01:00;;;;;;;7.20;4.13;;;0.60;99.90;;;;;;2080269;28;20190;-67
2021/03/16 05:02:01;;;;;;;4.57;3.40;;;0.60;99.90;;;;;;2080645;28;20230;-67
2021/03/16 05:03:02;;;;;;;12.20;3.90;;;0.50;99.90;;;;;;2080869;28;20686;-67
2021/03/16 05:04:03;;;;;;;6.73;4.23;;;0.60;99.90;;;;;;2080834;28;20183;-67
2021/03/16 05:05:05;;;;;;;5.47;3.37;;;0.60;99.90;;;;;;2080858;28;20182;-67
2021/03/16 05:06:06;;;;;;;9.35;3.58;;;0.60;99.90;;;;;;2080112;28;20188;-67
2021/03/16 05:07:06;;;;;;;8.50;3.70;;;0.60;99.90;;;;;;2080232;28;20685;-67
2021/03/16 05:08:07;;;;;;;6.27;3.73;;;0.60;99.90;;;;;;2080536;28;20749;-67
2021/03/16 05:09:08;;;;;;;8.33;4.23;;;0.60;99.90;;;;;;2080803;28;20171;-67
2021/03/16 05:10:09;;;;;;;10.67;3.93;;;0.60;99.90;;;;;;2080784;28;20552;-69
2021/03/16 05:11:10;;;;;;;9.68;3.42;;;0.60;99.90;;;;;;2080592;28;20684;-68
2021/03/16 05:12:11;;;;;;;6.30;3.60;;;0.60;99.90;;;;;;2080748;28;20281;-68
2021/03/16 05:13:11;;;;;;;8.40;3.83;;;0.60;99.90;;;;;;2080861;28;20171;-67
2021/03/16 05:14:12;;;;;;;8.07;3.80;;;0.60;99.90;;;;;;2080760;28;20186;-67
2021/03/16 05:15:13;;;;;;;8.00;3.43;;;0.50;99.90;;;;;;2080845;28;20211;-67
2021/03/16 05:16:14;;;;;;;6.95;4.03;;;0.50;99.90;;;;;;2080738;28;20254;-67
2021/03/16 05:17:15;;;;;;;9.80;4.22;;;0.40;99.90;;;;;;2080791;28;20188;-66
2021/03/16 05:18:16;;;;;;;9.37;3.73;;;0.50;99.90;;;;;;2080701;28;20524;-66
2021/03/16 05:19:17;;;;;;;10.93;4.00;;;0.40;99.90;;;;;;2080597;28;20172;-67
2021/03/16 05:20:18;;;;;;;6.67;3.87;;;0.40;99.90;;;;;;2080097;28;20240;-67
2021/03/16 05:21:19;;;;;;;8.50;4.03;;;0.40;99.90;;;;;;2079515;28;20195;-67
2021/03/16 05:22:19;;;;;;;8.53;3.80;;;0.40;99.90;;;;;;2080644;28;20535;-67
2021/03/16 05:23:20;;;;;;;9.53;4.20;;;0.40;99.90;;;;;;2080766;28;20183;-67
2021/03/16 05:24:21;;;;;;;9.40;4.15;;;0.40;99.90;;;;;;2080561;28;20187;-67
2021/03/16 05:25:22;;;;;;;6.80;3.50;;;0.50;99.90;;;;;;2088349;28;20194;-67
2021/03/16 05:26:23;;;;;;;11.33;3.73;;;0.50;99.90;;;;;;2088411;28;20315;-67
2021/03/16 05:27:24;;;;;;;6.05;3.63;;;0.50;99.90;;;;;;2080751;28;20223;-67
2021/03/16 05:28:25;;;;;;;7.03;3.57;;;0.50;99.90;;;;;;2080712;28;20674;-67